Time;durP1;ratioP1;P1;durP2;ratioP2;P2;SDS_P1;SDS_P2;PMS_P1;PMS_P2;Temp;Humidity;BMP_temperature;BMP_pressure;BME280_temperature;BME280_humidity;BME280_pressure;Samples;Min_cycle;Max_cycle;Signal;HPM_P1;HPM_P2
2022/04/05 00:00:48;;;;;;;29.30;16.50;;;;;;;-2.71;95.82;99468.94;1694726;83;21101;-69
2022/04/05 00:03:14;;;;;;;29.98;16.07;;;;;;;-2.70;95.59;99468.09;1700629;83;21155;-69
2022/04/05 00:05:42;;;;;;;32.53;16.75;;;;;;;-2.70;95.63;99455.21;1704449;83;21022;-69
2022/04/05 00:08:09;;;;;;;30.60;16.17;;;;;;;-2.69;95.39;99456.92;1704701;83;21549;-69
2022/04/05 00:10:36;;;;;;;32.00;17.85;;;;;;;-2.68;95.70;99454.80;1694905;83;21451;-69
2022/04/05 00:13:06;;;;;;;36.30;18.37;;;;;;;-2.73;95.79;99455.20;1710715;83;21096;-69
2022/04/05 00:15:34;;;;;;;36.50;20.43;;;;;;;-2.73;95.62;99452.63;1705119;83;21239;-71
2022/04/05 00:18:02;;;;;;;38.83;20.72;;;;;;;-2.71;95.16;99445.73;1684907;83;21092;-69
2022/04/05 00:20:30;;;;;;;38.90;21.15;;;;;;;-2.73;95.06;99444.89;1705717;83;21064;-69
2022/04/05 00:22:58;;;;;;;40.60;21.65;;;;;;;-2.74;94.55;99446.59;1688363;83;21057;-70
2022/04/05 00:25:25;;;;;;;35.55;21.20;;;;;;;-2.73;94.44;99439.74;1683129;83;21587;-70
2022/04/05 00:27:52;;;;;;;43.65;22.15;;;;;;;-2.75;94.31;99438.43;1699790;83;21151;-69
2022/04/05 00:30:19;;;;;;;38.13;20.77;;;;;;;-2.77;94.07;99434.55;1695420;83;21089;-69
2022/04/05 00:32:47;;;;;;;40.98;20.88;;;;;;;-2.76;93.75;99433.72;1702397;83;21646;-70
2022/04/05 00:35:15;;;;;;;40.58;18.98;;;;;;;-2.76;93.77;99431.13;1701694;83;21055;-70
2022/04/05 00:37:41;;;;;;;31.68;18.15;;;;;;;-2.76;93.53;99426.38;1704714;83;21097;-70
2022/04/05 00:40:10;;;;;;;37.03;19.20;;;;;;;-2.73;93.25;99427.70;1698818;83;21230;-68
2022/04/05 00:42:37;;;;;;;32.95;18.73;;;;;;;-2.73;92.87;99421.70;1694507;83;21089;-70
2022/04/05 00:45:06;;;;;;;34.95;18.85;;;;;;;-2.70;92.80;99424.28;1698440;83;21052;-69
2022/04/05 00:47:33;;;;;;;30.65;17.77;;;;;;;-2.70;92.88;99424.28;1683256;83;21755;-69
2022/04/05 00:50:00;;;;;;;34.30;18.12;;;;;;;-2.70;92.46;99419.98;1696070;83;21702;-70
2022/04/05 00:52:27;;;;;;;31.42;17.57;;;;;;;-2.69;92.02;99414.39;1694811;83;21486;-69
2022/04/05 00:54:55;;;;;;;31.68;16.80;;;;;;;-2.69;91.60;99413.11;1697577;83;21032;-69
2022/04/05 00:57:22;;;;;;;37.80;18.82;;;;;;;-2.66;91.59;99410.56;1690456;83;21587;-70
2022/04/05 00:59:56;;;;;;;35.98;20.10;;;;;;;-2.66;91.40;99411.85;1690890;83;21063;-71
2022/04/05 01:02:26;;;;;;;35.90;19.60;;;;;;;-2.67;90.78;99404.95;1687618;83;21052;-69
2022/04/05 01:04:53;;;;;;;42.62;22.45;;;;;;;-2.65;90.51;99408.41;1692268;83;21107;-70
2022/04/05 01:07:25;;;;;;;42.55;22.27;;;;;;;-2.65;90.54;99401.96;1694399;83;21088;-69
2022/04/05 01:09:59;;;;;;;42.25;21.97;;;;;;;-2.63;90.53;99401.55;1690412;83;21091;-69
2022/04/05 01:12:20;;;;;;;;;;;;;;;-2.64;90.53;99395.97;1695989;83;21060;-69
2022/04/05 01:14:48;;;;;;;37.25;19.98;;;;;;;-2.65;90.24;99390.36;1691558;83;20188;-70
2022/04/05 01:17:16;;;;;;;38.00;20.00;;;;;;;-2.64;89.98;99390.81;1666981;84;21271;-70
2022/04/05 01:19:46;;;;;;;40.60;20.68;;;;;;;-2.68;89.95;99382.63;1696094;83;21044;-69
2022/04/05 01:22:13;;;;;;;40.35;19.27;;;;;;;-2.67;90.04;99384.34;1697551;83;21565;-69
2022/04/05 01:24:40;;;;;;;37.40;20.17;;;;;;;-2.66;90.04;99379.62;1692545;83;21072;-68
2022/04/05 01:27:07;;;;;;;36.60;19.42;;;;;;;-2.68;90.08;99374.45;1688922;83;21056;-69
2022/04/05 01:29:34;;;;;;;40.08;21.48;;;;;;;-2.65;90.24;99374.90;1690405;83;21262;-69
2022/04/05 01:32:04;;;;;;;33.33;18.23;;;;;;;-2.68;89.70;99364.15;1692969;82;21302;-70
2022/04/05 01:34:34;;;;;;;38.98;20.08;;;;;;;-2.65;89.53;99372.31;1688312;82;21057;-70
2022/04/05 01:37:04;;;;;;;37.13;20.25;;;;;;;-2.64;89.24;99367.62;1694503;83;21111;-69
2022/04/05 01:39:33;;;;;;;41.55;21.02;;;;;;;-2.65;89.13;99358.14;1696656;83;21048;-70
2022/04/05 01:42:05;;;;;;;46.42;20.55;;;;;;;-2.64;89.68;99354.73;1693180;83;21244;-70
2022/04/05 01:44:33;;;;;;;36.10;19.00;;;;;;;-2.65;88.85;99347.83;1697595;83;21152;-68
2022/04/05 01:47:13;;;;;;;49.60;21.30;;;;;;;-2.65;88.96;99351.70;1697223;83;20989;-70
2022/04/05 01:49:41;;;;;;;37.60;19.20;;;;;;;-2.67;88.90;99344.38;1692202;83;21153;-69
2022/04/05 01:52:09;;;;;;;40.58;19.98;;;;;;;-2.67;88.93;99348.25;1665440;85;21088;-72
2022/04/05 01:54:36;;;;;;;37.05;17.10;;;;;;;-2.66;88.87;99347.41;1666268;85;21144;-70
2022/04/05 01:57:04;;;;;;;33.63;16.10;;;;;;;-2.68;88.88;99338.81;1670725;84;21108;-69
2022/04/05 02:01:27;;;;;;;37.07;17.43;;;;;;;-2.73;89.55;99331.49;1796603;79;22541;-70
2022/04/05 02:03:55;;;;;;;35.75;18.35;;;;;;;-2.82;89.50;99335.74;1756427;81;20998;-69
2022/04/05 02:06:22;;;;;;;36.65;16.20;;;;;;;-2.82;89.70;99335.74;1756560;81;21396;-70
2022/04/05 02:08:49;;;;;;;33.55;16.48;;;;;;;-2.85;89.73;99332.28;1756404;81;21041;-68
2022/04/05 02:11:17;;;;;;;27.45;14.87;;;;;;;-2.87;89.97;99328.43;1756575;81;21521;-69
2022/04/05 02:13:46;;;;;;;27.95;15.08;;;;;;;-2.91;90.17;99325.40;1756663;81;21108;-70
2022/04/05 02:16:13;;;;;;;26.40;14.10;;;;;;;-2.90;90.04;99321.09;1756513;81;21053;-70
2022/04/05 02:18:41;;;;;;;26.90;14.23;;;;;;;-2.93;90.16;99318.09;1756087;81;21286;-69
2022/04/05 02:21:08;;;;;;;29.70;15.32;;;;;;;-2.95;90.19;99319.79;1756369;81;20985;-69
2022/04/05 02:23:36;;;;;;;27.67;15.13;;;;;;;-2.95;90.31;99319.79;1756369;81;21518;-69
2022/04/05 02:26:08;;;;;;;30.27;15.03;;;;;;;-2.96;90.48;99314.22;1755851;81;21037;-71
2022/04/05 02:28:37;;;;;;;23.67;14.03;;;;;;;-2.96;90.05;99318.08;1755912;81;21049;-69
2022/04/05 02:31:06;;;;;;;25.65;14.68;;;;;;;-2.98;90.08;99315.92;1756308;81;21133;-69
2022/04/05 02:33:35;;;;;;;32.53;14.75;;;;;;;-3.00;90.09;99309.90;1756274;81;21034;-69
2022/04/05 02:36:05;;;;;;;23.00;13.53;;;;;;;-3.00;90.09;99315.05;1756384;81;21029;-69
2022/04/05 02:38:33;;;;;;;24.32;13.90;;;;;;;-3.00;89.68;99307.32;1756643;81;21069;-69
2022/04/05 02:41:01;;;;;;;27.52;14.60;;;;;;;-3.00;89.47;99299.59;1756320;81;21120;-70
2022/04/05 02:43:28;;;;;;;20.75;12.58;;;;;;;-3.02;89.26;99299.58;1753821;81;21203;-70
2022/04/05 02:45:57;;;;;;;23.92;12.20;;;;;;;-3.00;89.05;99291.86;1747993;82;20998;-68
2022/04/05 02:48:24;;;;;;;26.60;12.23;;;;;;;-3.01;89.41;99287.58;1748201;82;20994;-70
2022/04/05 02:50:53;;;;;;;19.92;10.72;;;;;;;-3.01;89.36;99291.45;1748001;81;21619;-68
2022/04/05 02:53:21;;;;;;;20.35;11.57;;;;;;;-3.02;89.07;99280.26;1747950;82;21604;-69
2022/04/05 02:55:49;;;;;;;21.07;11.28;;;;;;;-3.01;88.69;99273.41;1747903;82;21091;-69
2022/04/05 02:58:16;;;;;;;18.07;11.22;;;;;;;-3.01;87.80;99278.13;1747924;82;21035;-70
2022/04/05 03:00:44;;;;;;;20.37;11.18;;;;;;;-3.00;87.54;99273.40;1740179;82;21486;-69
2022/04/05 03:03:13;;;;;;;17.67;10.28;;;;;;;-2.97;87.82;99276.01;1734958;82;21109;-70
2022/04/05 03:05:42;;;;;;;19.77;11.55;;;;;;;-2.95;87.07;99267.83;1734566;82;21079;-69
2022/04/05 03:08:09;;;;;;;23.05;11.20;;;;;;;-2.93;86.46;99267.84;1734937;82;21159;-70
2022/04/05 03:10:37;;;;;;;20.30;10.15;;;;;;;-2.88;86.22;99268.72;1713861;82;21113;-69
2022/04/05 03:13:06;;;;;;;17.98;10.35;;;;;;;-2.85;85.16;99261.02;1734116;82;21034;-69
2022/04/05 03:15:34;;;;;;;18.30;9.05;;;;;;;-2.82;85.09;99261.02;1734271;82;21810;-70
2022/04/05 03:18:01;;;;;;;19.30;11.55;;;;;;;-2.78;84.75;99253.73;1734086;82;21078;-70
2022/04/05 03:20:31;;;;;;;21.52;11.85;;;;;;;-2.75;83.76;99251.59;1734125;82;21214;-69
2022/04/05 03:23:00;;;;;;;20.48;10.38;;;;;;;-2.72;83.81;99241.71;1734029;82;21553;-70
2022/04/05 03:25:28;;;;;;;19.37;10.80;;;;;;;-2.71;83.46;99250.75;1734185;82;21034;-70
2022/04/05 03:28:02;;;;;;;19.42;11.18;;;;;;;-2.70;83.64;99244.72;1734056;82;21535;-70
2022/04/05 03:30:29;;;;;;;19.85;11.10;;;;;;;-2.68;83.96;99241.72;1734425;82;21550;-70
2022/04/05 03:32:58;;;;;;;20.15;11.18;;;;;;;-2.68;83.59;99239.14;1734172;82;21224;-70
2022/04/05 03:35:25;;;;;;;16.62;10.90;;;;;;;-2.67;83.44;99236.13;1734124;82;21078;-70
2022/04/05 03:37:53;;;;;;;20.23;11.15;;;;;;;-2.65;82.97;99233.98;1734225;82;21057;-69
2022/04/05 03:40:20;;;;;;;22.65;11.68;;;;;;;-2.64;83.20;99231.00;1734376;82;21092;-70
2022/04/05 03:42:47;;;;;;;21.05;11.78;;;;;;;-2.62;83.21;99235.30;1734116;82;21099;-70
2022/04/05 03:45:14;;;;;;;22.62;11.80;;;;;;;-2.60;83.06;99237.86;1734214;82;21222;-69
2022/04/05 03:47:42;;;;;;;25.75;12.50;;;;;;;-2.58;82.64;99228.41;1734165;82;21546;-70
2022/04/05 03:50:11;;;;;;;22.60;10.82;;;;;;;-2.57;82.04;99218.11;1724325;82;21106;-71
2022/04/05 03:52:39;;;;;;;20.75;11.75;;;;;;;-2.54;81.82;99214.23;1704813;83;21641;-70
2022/04/05 03:55:08;;;;;;;22.07;12.15;;;;;;;-2.49;81.10;99216.83;1704709;84;21046;-70
2022/04/05 03:57:36;;;;;;;20.88;12.43;;;;;;;-2.45;81.60;99213.39;1705025;83;21085;-69
2022/04/05 04:00:07;;;;;;;17.95;11.30;;;;;;;-2.39;81.58;99206.96;1704839;83;21129;-70
2022/04/05 04:02:36;;;;;;;24.47;12.65;;;;;;;-2.30;81.39;99205.23;1722344;82;21499;-69
2022/04/05 04:05:06;;;;;;;21.60;12.28;;;;;;;-2.23;81.38;99205.66;1734224;82;20987;-68
2022/04/05 04:07:39;;;;;;;19.60;11.22;;;;;;;-2.14;81.00;99209.52;1713222;82;21097;-70
2022/04/05 04:10:08;;;;;;;18.92;11.80;;;;;;;-2.08;81.55;99198.36;1734271;82;21077;-69
2022/04/05 04:12:35;;;;;;;20.05;11.50;;;;;;;-1.91;81.26;99197.48;1734492;82;21026;-69
2022/04/05 04:15:03;;;;;;;21.27;12.13;;;;;;;-1.74;80.85;99199.16;1734311;82;21030;-70
2022/04/05 04:17:30;;;;;;;20.72;12.70;;;;;;;-1.53;80.42;99198.24;1734319;82;21124;-69
2022/04/05 04:19:57;;;;;;;26.90;13.48;;;;;;;-1.31;80.01;99199.89;1734251;82;21136;-71
2022/04/05 04:22:26;;;;;;;25.12;12.40;;;;;;;-1.13;78.05;99192.91;1734518;82;21180;-70
2022/04/05 04:24:57;;;;;;;20.52;12.18;;;;;;;-1.00;76.63;99196.30;1734028;82;21284;-69
2022/04/05 04:27:25;;;;;;;22.05;12.10;;;;;;;-0.88;76.71;99192.34;1734239;82;21094;-69
2022/04/05 04:29:51;;;;;;;22.00;12.23;;;;;;;-0.82;75.95;99191.47;1734086;82;21046;-69
2022/04/05 04:32:18;;;;;;;23.10;12.98;;;;;;;-0.74;76.17;99181.48;1734307;82;21058;-69
2022/04/05 04:34:45;;;;;;;19.90;12.53;;;;;;;-0.65;76.01;99184.01;1734268;82;21213;-70
2022/04/05 04:37:13;;;;;;;20.92;12.30;;;;;;;-0.57;75.79;99184.41;1734225;82;21050;-70
2022/04/05 04:39:40;;;;;;;23.67;12.47;;;;;;;-0.51;75.85;99180.47;1734510;82;21033;-70
2022/04/05 04:42:07;;;;;;;22.95;12.80;;;;;;;-0.48;74.76;99174.85;1734165;82;21135;-71
2022/04/05 04:44:33;;;;;;;25.08;11.60;;;;;;;-0.41;74.42;99183.42;1734181;82;21617;-70
2022/04/05 04:47:00;;;;;;;26.57;14.28;;;;;;;-0.36;74.60;99176.48;1734074;82;21240;-69
2022/04/05 04:49:27;;;;;;;22.70;12.40;;;;;;;-0.30;74.75;99179.44;1732420;82;21121;-69
2022/04/05 04:51:55;;;;;;;20.80;10.45;;;;;;;-0.26;74.67;99175.52;1689813;84;21069;-70
2022/04/05 04:54:22;;;;;;;23.95;14.18;;;;;;;-0.26;74.42;99174.23;1689759;83;21628;-70
2022/04/05 04:56:49;;;;;;;22.20;10.75;;;;;;;-0.23;74.51;99168.16;1689699;83;21164;-69
2022/04/05 04:59:15;;;;;;;26.33;14.60;;;;;;;-0.18;74.66;99171.59;1689799;83;21217;-70
2022/04/05 05:01:43;;;;;;;25.70;12.90;;;;;;;-0.11;74.41;99164.63;1726422;81;20982;-70
2022/04/05 05:04:09;;;;;;;28.55;16.48;;;;;;;0.07;74.33;99163.58;1742421;82;21037;-70
2022/04/05 05:06:38;;;;;;;27.00;13.65;;;;;;;0.23;73.99;99161.69;1742292;82;21061;-69
2022/04/05 05:09:05;;;;;;;26.90;10.98;;;;;;;0.42;73.37;99167.10;1742305;82;21082;-69
2022/04/05 05:11:32;;;;;;;23.75;12.85;;;;;;;0.60;72.57;99157.81;1742417;82;21924;-72
2022/04/05 05:13:59;;;;;;;23.30;13.75;;;;;;;0.72;71.75;99159.84;1742368;82;21002;-69
2022/04/05 05:16:25;;;;;;;18.67;10.08;;;;;;;0.84;71.51;99158.38;1742379;82;21021;-70
2022/04/05 05:18:52;;;;;;;16.80;9.33;;;;;;;1.00;69.91;99157.29;1742342;82;21010;-72
2022/04/05 05:21:19;;;;;;;24.82;13.58;;;;;;;1.12;69.88;99155.41;1742296;82;22062;-70
2022/04/05 05:23:47;;;;;;;22.10;9.78;;;;;;;1.32;68.96;99150.78;1742366;82;21058;-70
2022/04/05 05:26:15;;;;;;;26.33;14.45;;;;;;;1.32;68.96;99150.78;1742207;82;21096;-71
2022/04/05 05:28:42;;;;;;;22.82;13.35;;;;;;;1.50;68.60;99156.58;1742293;82;21628;-70
2022/04/05 05:31:09;;;;;;;20.62;12.60;;;;;;;1.64;67.69;99143.78;1742154;82;22165;-70
2022/04/05 05:33:37;;;;;;;21.82;11.65;;;;;;;1.76;66.91;99145.77;1742255;82;21022;-70
2022/04/05 05:36:04;;;;;;;23.65;14.23;;;;;;;1.83;66.49;99146.07;1742131;82;21538;-69
2022/04/05 05:38:31;;;;;;;22.00;11.15;;;;;;;1.86;66.58;99142.99;1742697;82;21097;-70
2022/04/05 05:40:58;;;;;;;23.92;13.43;;;;;;;2.00;66.30;99139.27;1742240;82;20991;-70
2022/04/05 05:43:25;;;;;;;23.50;12.98;;;;;;;2.14;65.40;99145.09;1742369;82;21097;-70
2022/04/05 05:45:51;;;;;;;18.92;11.83;;;;;;;2.30;64.78;99146.52;1742648;82;21081;-69
2022/04/05 05:48:18;;;;;;;21.50;12.50;;;;;;;2.32;64.53;99139.97;1742496;82;21258;-71
2022/04/05 05:50:46;;;;;;;23.00;13.45;;;;;;;2.38;65.23;99124.72;1725405;82;21084;-70
2022/04/05 05:53:13;;;;;;;21.82;12.20;;;;;;;2.48;64.77;99128.83;1712628;83;21128;-71
2022/04/05 05:55:40;;;;;;;17.45;10.78;;;;;;;2.57;64.32;99127.34;1712643;83;21581;-70
2022/04/05 05:58:07;;;;;;;21.87;13.98;;;;;;;2.57;63.68;99120.84;1712812;83;21085;-70
2022/04/05 06:00:33;;;;;;;25.48;12.63;;;;;;;2.62;64.27;99116.43;1719045;81;21254;-71
2022/04/05 06:03:02;;;;;;;22.15;13.08;;;;;;;2.56;63.70;99113.09;1734126;82;21074;-69
2022/04/05 06:05:29;;;;;;;23.95;14.20;;;;;;;2.47;64.13;99107.19;1734224;82;21016;-71
2022/04/05 06:07:56;;;;;;;21.90;12.35;;;;;;;2.49;64.53;99111.06;1734257;82;21613;-70
2022/04/05 06:10:24;;;;;;;22.67;12.98;;;;;;;2.45;64.05;99106.81;1734102;82;21514;-70
2022/04/05 06:12:51;;;;;;;20.43;12.47;;;;;;;2.49;64.86;99100.67;1734357;82;21902;-69
2022/04/05 06:15:19;;;;;;;21.37;11.57;;;;;;;2.51;64.69;99100.20;1734370;82;21022;-69
2022/04/05 06:17:47;;;;;;;24.72;14.28;;;;;;;2.53;64.40;99095.80;1734143;82;21042;-71
2022/04/05 06:20:16;;;;;;;25.48;13.88;;;;;;;2.56;64.58;99093.16;1734417;82;21109;-70
2022/04/05 06:22:51;;;;;;;25.20;13.80;;;;;;;2.60;63.66;99098.70;1734100;82;21072;-71
2022/04/05 06:25:24;;;;;;;24.10;13.25;;;;;;;2.63;63.82;99094.73;1733929;82;21086;-72
2022/04/05 06:27:51;;;;;;;26.93;13.20;;;;;;;2.68;63.75;99093.33;1734114;82;21038;-70
2022/04/05 06:30:18;;;;;;;20.97;12.28;;;;;;;2.73;63.65;99097.98;1734147;82;21054;-70
2022/04/05 06:32:46;;;;;;;25.32;12.95;;;;;;;2.77;63.18;99087.94;1734191;82;21085;-70
2022/04/05 06:35:13;;;;;;;22.95;13.65;;;;;;;2.83;62.88;99090.83;1734446;82;21064;-70
2022/04/05 06:37:43;;;;;;;25.92;14.15;;;;;;;2.84;62.50;99082.16;1734301;82;21645;-71
2022/04/05 06:40:11;;;;;;;20.57;11.60;;;;;;;2.85;63.22;99076.05;1734004;82;21038;-69
2022/04/05 06:42:42;;;;;;;22.37;13.32;;;;;;;2.82;61.92;99080.88;1734427;82;21029;-70
2022/04/05 06:45:09;;;;;;;25.15;14.30;;;;;;;2.83;62.45;99076.53;1713228;82;21086;-70
2022/04/05 06:47:37;;;;;;;22.75;11.10;;;;;;;2.83;62.50;99070.02;1734741;82;21076;-69
2022/04/05 06:50:07;;;;;;;24.57;13.05;;;;;;;2.91;62.04;99073.33;1734161;82;21290;-69
2022/04/05 06:52:38;;;;;;;28.00;14.43;;;;;;;2.97;61.54;99067.99;1734700;82;21555;-71
2022/04/05 06:55:06;;;;;;;23.18;13.90;;;;;;;3.07;60.94;99067.33;1734365;82;21141;-70
2022/04/05 06:57:33;;;;;;;26.87;14.07;;;;;;;3.07;60.57;99069.47;1734520;82;21121;-70
2022/04/05 06:59:59;;;;;;;24.32;14.80;;;;;;;3.10;60.32;99056.38;1734305;82;21097;-69
2022/04/05 07:02:26;;;;;;;21.57;13.10;;;;;;;3.32;60.33;99054.13;1734261;81;21222;-69
2022/04/05 07:04:53;;;;;;;20.37;11.43;;;;;;;3.45;58.64;99049.48;1734310;82;21057;-70
2022/04/05 07:07:20;;;;;;;23.77;13.75;;;;;;;3.52;58.73;99045.83;1734472;82;21038;-70
2022/04/05 07:09:47;;;;;;;27.48;12.00;;;;;;;3.67;59.55;99048.92;1734219;82;21049;-70
2022/04/05 07:12:13;;;;;;;18.80;11.75;;;;;;;3.71;56.68;99057.06;1734491;82;21096;-69
2022/04/05 07:14:41;;;;;;;16.87;10.82;;;;;;;3.74;56.96;99046.56;1734297;82;21203;-69
2022/04/05 07:17:07;;;;;;;21.20;12.55;;;;;;;3.71;56.23;99042.74;1734322;82;21037;-70
2022/04/05 07:19:34;;;;;;;22.52;12.35;;;;;;;3.78;55.82;99046.89;1734313;82;21057;-71
2022/04/05 07:22:02;;;;;;;16.23;9.43;;;;;;;3.92;55.58;99033.50;1734314;82;21049;-68
2022/04/05 07:24:30;;;;;;;18.27;10.85;;;;;;;4.06;54.46;99037.02;1734493;82;21538;-69
2022/04/05 07:26:56;;;;;;;19.32;10.65;;;;;;;4.15;53.94;99037.61;1734662;82;21522;-70
2022/04/05 07:29:23;;;;;;;23.30;12.07;;;;;;;4.16;54.27;99031.94;1734450;82;21054;-69
2022/04/05 07:31:49;;;;;;;16.07;8.80;;;;;;;4.21;53.84;99019.66;1734180;82;21053;-69
2022/04/05 07:34:16;;;;;;;17.90;11.18;;;;;;;4.25;53.57;99025.16;1734414;82;21066;-68
2022/04/05 07:36:43;;;;;;;20.23;11.15;;;;;;;4.27;53.18;99022.06;1734198;82;21024;-70
2022/04/05 07:39:10;;;;;;;20.88;12.13;;;;;;;4.32;53.04;99025.38;1734198;82;21230;-72
2022/04/05 07:41:38;;;;;;;18.07;10.50;;;;;;;4.43;53.38;99012.50;1734109;82;21762;-69
2022/04/05 07:44:05;;;;;;;18.70;9.65;;;;;;;4.57;52.28;99022.06;1734310;82;21003;-70
2022/04/05 07:46:35;;;;;;;22.42;11.08;;;;;;;4.62;51.23;99014.52;1734191;82;21014;-70
2022/04/05 07:49:01;;;;;;;21.45;12.15;;;;;;;4.61;51.16;99003.66;1713877;82;21042;-71
2022/04/05 07:51:28;;;;;;;18.98;12.47;;;;;;;4.46;51.15;99003.27;1708732;82;21173;-71
2022/04/05 07:53:55;;;;;;;17.98;11.80;;;;;;;4.46;51.45;98998.06;1704697;83;21037;-71
2022/04/05 07:56:21;;;;;;;21.95;12.80;;;;;;;4.54;51.97;98997.39;1704774;83;21058;-71
2022/04/05 07:58:49;;;;;;;19.27;12.45;;;;;;;4.67;51.72;99009.58;1704987;84;21030;-72
2022/04/05 08:01:15;;;;;;;23.12;11.48;;;;;;;4.60;50.63;98995.45;1705000;83;21158;-69
2022/04/05 08:03:43;;;;;;;23.05;12.65;;;;;;;4.48;51.65;98991.89;1712828;83;21844;-69
2022/04/05 08:06:09;;;;;;;21.10;11.43;;;;;;;4.45;52.34;98989.84;1712607;83;21577;-70
2022/04/05 08:08:36;;;;;;;17.12;9.88;;;;;;;4.45;51.78;98982.03;1712672;83;21553;-70
2022/04/05 08:11:02;;;;;;;19.07;11.70;;;;;;;4.43;50.98;98979.45;1712676;83;21558;-70
2022/04/05 08:13:29;;;;;;;26.42;11.03;;;;;;;4.38;50.27;98983.51;1712722;83;21033;-70
2022/04/05 08:15:56;;;;;;;18.65;11.60;;;;;;;4.35;49.75;98984.06;1712650;83;21517;-70
2022/04/05 08:18:23;;;;;;;21.57;11.05;;;;;;;4.36;49.88;98980.09;1712683;83;21018;-70
2022/04/05 08:20:50;;;;;;;19.37;12.37;;;;;;;4.41;50.27;98978.19;1712646;83;21283;-69
2022/04/05 08:23:16;;;;;;;19.07;11.78;;;;;;;4.43;50.36;98977.31;1712694;83;21088;-70
2022/04/05 08:25:44;;;;;;;20.25;10.70;;;;;;;4.41;50.58;98976.89;1712580;83;20982;-69
2022/04/05 08:28:12;;;;;;;20.10;12.37;;;;;;;4.38;50.18;98975.69;1712628;83;21136;-70
2022/04/05 08:30:38;;;;;;;21.37;12.15;;;;;;;4.35;50.68;98982.77;1712637;83;21097;-70
2022/04/05 08:33:05;;;;;;;18.05;12.18;;;;;;;4.36;50.97;98989.21;1712657;83;21014;-70
2022/04/05 08:35:33;;;;;;;17.20;10.55;;;;;;;4.38;51.11;98983.51;1712750;83;21097;-69
2022/04/05 08:38:01;;;;;;;22.27;11.75;;;;;;;4.38;49.90;98986.11;1712627;83;21037;-70
2022/04/05 08:40:27;;;;;;;18.90;9.18;;;;;;;4.37;50.58;98987.03;1712790;83;21139;-69
2022/04/05 08:42:56;;;;;;;15.50;8.65;;;;;;;4.36;49.36;98986.61;1712684;83;21185;-71
2022/04/05 08:45:23;;;;;;;23.38;12.90;;;;;;;4.33;50.32;98990.62;1712892;83;21026;-70
2022/04/05 08:47:57;;;;;;;19.75;12.00;;;;;;;4.32;50.77;98984.14;1712913;83;21331;-69
2022/04/05 08:50:26;;;;;;;23.92;13.20;;;;;;;4.28;51.03;98989.91;1725369;82;21085;-70
2022/04/05 08:52:55;;;;;;;23.25;13.58;;;;;;;4.24;51.61;98981.77;1742371;82;21211;-69
2022/04/05 08:55:22;;;;;;;20.25;7.78;;;;;;;4.35;52.11;98975.79;1742570;82;21097;-71
2022/04/05 08:57:49;;;;;;;19.80;12.23;;;;;;;4.35;51.53;98981.00;1742286;82;21018;-70
2022/04/05 09:00:22;;;;;;;19.50;8.80;;;;;;;4.25;52.61;98976.10;1742397;82;21061;-70
2022/04/05 09:03:02;;;;;;;17.12;9.93;;;;;;;4.20;52.53;98986.66;1745305;81;22127;-72
2022/04/05 09:05:36;;;;;;;18.00;11.22;;;;;;;4.14;52.92;98979.02;1747722;82;21172;-69
2022/04/05 09:08:20;;;;;;;17.77;10.55;;;;;;;4.21;53.51;98980.57;1747956;82;21126;-70
2022/04/05 09:11:07;;;;;;;16.90;10.63;;;;;;;4.26;53.54;98979.13;1748190;82;21510;-70
2022/04/05 09:13:34;;;;;;;18.17;10.85;;;;;;;4.29;54.17;98977.27;1748010;82;21006;-70
2022/04/05 09:16:05;;;;;;;21.23;12.35;;;;;;;4.26;54.69;98973.92;1748190;82;21177;-70
2022/04/05 09:18:36;;;;;;;17.75;10.10;;;;;;;4.23;54.99;98983.95;1748206;82;21569;-68
2022/04/05 09:21:04;;;;;;;20.20;10.80;;;;;;;4.03;57.23;98979.80;1747772;81;21077;-71
2022/04/05 09:23:34;;;;;;;20.05;11.57;;;;;;;3.76;59.37;98976.61;1748059;82;21037;-70
2022/04/05 09:26:05;;;;;;;20.20;10.18;;;;;;;3.65;61.04;98972.14;1747932;81;21054;-69
2022/04/05 09:28:38;;;;;;;20.37;11.55;;;;;;;3.51;61.43;98970.37;1748193;81;21057;-69
2022/04/05 09:31:09;;;;;;;20.25;11.93;;;;;;;3.53;62.61;98981.14;1747938;82;21073;-69
2022/04/05 09:33:40;;;;;;;17.70;8.53;;;;;;;3.54;63.67;98976.36;1748013;82;21093;-69
2022/04/05 09:36:11;;;;;;;20.77;12.60;;;;;;;3.49;64.94;98982.11;1748023;82;21045;-70
2022/04/05 09:38:42;;;;;;;19.92;11.45;;;;;;;3.44;67.05;98980.09;1746987;82;21541;-70
2022/04/05 09:41:19;;;;;;;21.40;12.80;;;;;;;3.38;68.48;98975.03;1748174;82;21077;-71
2022/04/05 09:43:55;;;;;;;24.12;13.08;;;;;;;3.43;69.20;98969.70;1748138;82;21138;-68
2022/04/05 09:46:23;;;;;;;34.98;12.25;;;;;;;3.53;69.75;98966.83;1748280;82;21097;-69
2022/04/05 09:49:04;;;;;;;20.97;11.83;;;;;;;3.66;69.23;98958.25;1748176;82;21112;-71
2022/04/05 09:51:41;;;;;;;17.95;10.88;;;;;;;3.76;70.38;98949.72;1655663;85;21056;-70
2022/04/05 09:54:15;;;;;;;21.97;13.18;;;;;;;3.98;70.25;98949.52;1718624;83;21048;-70
2022/04/05 09:56:43;;;;;;;21.23;12.35;;;;;;;4.14;69.65;98946.44;1692868;83;21088;-70
2022/04/05 09:59:18;;;;;;;19.60;12.35;;;;;;;4.12;70.05;98951.72;1718134;83;21073;-69
2022/04/05 10:01:46;;;;;;;25.48;15.30;;;;;;;4.14;71.06;98945.14;1718136;83;21061;-70
2022/04/05 10:04:15;;;;;;;20.75;11.95;;;;;;;4.21;71.32;98959.72;1705189;83;21066;-69
2022/04/05 10:06:47;;;;;;;23.73;13.40;;;;;;;4.14;72.73;98942.53;1704832;84;21022;-70
2022/04/05 10:09:15;;;;;;;;;;;;;;;4.16;72.84;98940.73;1707329;83;21131;-70
2022/04/05 10:11:43;;;;;;;19.98;12.58;;;;;;;4.18;72.91;98953.27;1704569;84;20181;-69
2022/04/05 10:14:13;;;;;;;20.57;13.85;;;;;;;4.13;73.21;98940.84;1704935;84;21018;-69
2022/04/05 10:16:42;;;;;;;23.00;15.38;;;;;;;4.20;73.52;98935.39;1704772;84;21128;-71
2022/04/05 10:19:10;;;;;;;20.72;14.13;;;;;;;4.31;73.25;98924.64;1661565;84;21129;-71
2022/04/05 10:21:41;;;;;;;23.60;14.00;;;;;;;4.34;72.73;98927.15;1704835;83;21506;-70
2022/04/05 10:24:09;;;;;;;19.77;11.90;;;;;;;4.30;73.15;98920.34;1704584;84;21062;-72
2022/04/05 10:26:38;;;;;;;20.27;11.90;;;;;;;4.31;72.49;98918.13;1704507;84;21066;-71
2022/04/05 10:29:07;;;;;;;19.42;11.28;;;;;;;4.28;73.03;98929.97;1704513;84;21034;-70
2022/04/05 10:32:04;;;;;;;22.02;12.73;;;;;;;4.29;73.54;98917.78;1704851;84;21117;-70
2022/04/05 10:34:38;;;;;;;26.20;13.93;;;;;;;4.41;73.26;98915.62;1704829;84;21296;-72
2022/04/05 10:37:18;;;;;;;19.85;13.70;;;;;;;4.59;73.54;98919.41;1685512;84;21046;-71
2022/04/05 10:40:02;;;;;;;24.75;13.28;;;;;;;4.68;73.23;98916.97;1704713;84;21069;-71
2022/04/05 10:42:39;;;;;;;18.77;10.08;;;;;;;4.77;72.90;98904.93;1704717;82;21077;-69
2022/04/05 10:45:26;;;;;;;16.57;9.70;;;;;;;4.81;72.56;98910.91;1704979;84;21092;-71
2022/04/05 10:48:12;;;;;;;19.17;11.68;;;;;;;4.75;72.67;98910.64;1705164;84;21148;-70
2022/04/05 10:51:05;;;;;;;19.92;11.83;;;;;;;4.59;75.19;98896.41;1704746;84;21037;-70
2022/04/05 10:54:17;;;;;;;21.60;12.60;;;;;;;4.53;75.53;98902.69;1704792;84;21576;-71
2022/04/05 10:56:14;;;;;;;18.45;10.65;;;;;;;4.49;76.12;98899.77;1686160;82;21071;-70
2022/04/05 10:59:10;;;;;;;24.18;12.50;;;;;;;4.39;76.55;98895.72;1734430;82;21053;-71
2022/04/05 11:01:45;;;;;;;15.43;9.35;;;;;;;4.35;77.08;98889.77;1734359;82;21131;-71
2022/04/05 11:04:31;;;;;;;23.35;13.88;;;;;;;4.37;76.90;98895.80;1745711;82;21093;-71
2022/04/05 11:07:09;;;;;;;20.20;11.88;;;;;;;4.33;77.78;98883.75;1748247;82;21588;-70
2022/04/05 11:09:54;;;;;;;22.90;12.20;;;;;;;4.34;77.46;98884.59;1748453;82;21073;-71
2022/04/05 11:12:28;;;;;;;23.35;13.38;;;;;;;4.37;76.17;98879.28;1721742;82;21077;-70
2022/04/05 11:14:57;;;;;;;22.48;14.10;;;;;;;4.50;75.16;98883.66;1748575;82;21537;-69
2022/04/05 11:17:27;;;;;;;15.48;9.63;;;;;;;4.64;74.25;98873.63;1720561;82;21073;-70
2022/04/05 11:19:57;;;;;;;16.95;9.88;;;;;;;4.72;70.81;98896.41;1748434;82;21026;-69
2022/04/05 11:22:33;;;;;;;29.55;11.57;;;;;;;4.76;68.05;98871.94;1720861;82;21053;-70
2022/04/05 11:25:05;;;;;;;18.50;10.88;;;;;;;4.78;68.70;98884.45;1748428;82;21049;-69
2022/04/05 11:27:47;;;;;;;21.40;12.30;;;;;;;4.83;68.08;98869.52;1748033;82;21109;-71
2022/04/05 11:30:29;;;;;;;19.98;10.75;;;;;;;4.87;67.24;98878.08;1748213;82;21461;-70
2022/04/05 11:33:20;;;;;;;17.23;10.05;;;;;;;4.92;66.53;98875.31;1747855;81;21228;-72